createdAt,value
2023-01-04T00:00:47.066Z,64.50
2023-01-04T00:02:48.917Z,64.70
2023-01-04T00:04:50.627Z,65.00
2023-01-04T00:06:52.261Z,64.90
2023-01-04T00:08:54.058Z,64.90
2023-01-04T00:11:02.800Z,64.70
2023-01-04T00:13:04.529Z,64.70
2023-01-04T00:15:06.546Z,64.90
2023-01-04T00:17:08.240Z,65.10
2023-01-04T00:19:11.174Z,64.70
2023-01-04T00:21:15.793Z,64.70
2023-01-04T00:23:17.406Z,64.90
2023-01-04T00:25:19.159Z,65.20
2023-01-04T00:27:20.811Z,65.40
2023-01-04T00:29:22.465Z,65.50
2023-01-04T00:31:24.763Z,65.50
2023-01-04T00:33:26.871Z,65.60
2023-01-04T00:35:45.252Z,65.20
2023-01-04T00:37:51.893Z,65.20
2023-01-04T00:39:53.919Z,65.80
2023-01-04T00:42:05.013Z,65.80
2023-01-04T00:44:07.143Z,65.90
2023-01-04T00:46:11.538Z,65.90
2023-01-04T00:48:13.245Z,65.90
2023-01-04T00:50:14.881Z,65.90
2023-01-04T00:52:16.477Z,65.90
2023-01-04T00:54:18.542Z,65.70
2023-01-04T00:56:20.289Z,65.50
2023-01-04T00:58:21.945Z,65.10
2023-01-04T01:00:23.693Z,65.10
2023-01-04T01:02:25.437Z,65.30
2023-01-04T01:04:27.600Z,65.40
2023-01-04T01:06:30.029Z,65.30
2023-01-04T01:08:34.746Z,65.30
2023-01-04T01:10:36.377Z,65.20
2023-01-04T01:12:38.087Z,65.40
2023-01-04T01:14:39.687Z,65.90
2023-01-04T01:16:58.522Z,65.50
2023-01-04T01:19:00.679Z,65.50
2023-01-04T01:21:05.890Z,65.40
2023-01-04T01:23:07.628Z,65.40
2023-01-04T01:25:09.375Z,65.40
2023-01-04T01:27:11.245Z,65.30
2023-01-04T01:29:12.902Z,65.50
2023-01-04T01:31:15.947Z,65.70
2023-01-04T01:33:17.612Z,65.70
2023-01-04T01:35:19.235Z,65.70
2023-01-04T01:37:20.818Z,66.00
2023-01-04T01:39:22.395Z,66.10
2023-01-04T01:41:25.395Z,66.00
2023-01-04T01:43:47.262Z,66.80
2023-01-04T01:45:57.993Z,66.00
2023-01-04T01:48:03.801Z,65.80
2023-01-04T01:50:06.306Z,65.30
2023-01-04T01:52:16.437Z,65.50
2023-01-04T01:54:20.845Z,66.10
2023-01-04T01:56:22.494Z,66.00
2023-01-04T01:58:44.122Z,66.10
2023-01-04T02:00:45.784Z,66.00
2023-01-04T02:03:07.883Z,66.70
2023-01-04T02:05:10.271Z,66.70
2023-01-04T02:07:13.120Z,66.70
2023-01-04T02:09:15.585Z,66.40
2023-01-04T02:11:17.309Z,65.90
2023-01-04T02:13:21.495Z,66.10
2023-01-04T02:15:26.569Z,66.70
2023-01-04T02:17:28.151Z,65.90
2023-01-04T02:19:32.873Z,66.00
2023-01-04T02:21:53.431Z,66.00
2023-01-04T02:24:14.007Z,66.00
2023-01-04T02:26:18.817Z,66.00
2023-01-04T02:28:23.291Z,66.00
2023-01-04T02:30:43.736Z,65.90
2023-01-04T02:32:51.525Z,65.80
2023-01-04T02:35:04.095Z,65.90
2023-01-04T02:37:18.774Z,65.80
2023-01-04T02:39:37.528Z,65.90
2023-01-04T02:41:48.422Z,66.00
2023-01-04T02:44:18.031Z,65.90
2023-01-04T02:46:30.881Z,65.90
2023-01-04T02:48:57.914Z,65.60
2023-01-04T02:51:00.463Z,65.70
2023-01-04T02:53:02.255Z,65.70
2023-01-04T02:55:05.014Z,65.70
2023-01-04T02:57:12.338Z,65.60
2023-01-04T02:59:23.291Z,66.00
2023-01-04T03:01:43.785Z,65.90
2023-01-04T03:04:14.438Z,66.00
2023-01-04T03:06:18.138Z,65.70
2023-01-04T03:08:32.683Z,65.40
2023-01-04T03:10:34.285Z,65.50
2023-01-04T03:12:52.410Z,65.50
2023-01-04T03:15:00.285Z,65.30
2023-01-04T03:17:04.262Z,65.50
2023-01-04T03:19:09.282Z,65.50
2023-01-04T03:21:12.354Z,65.80
2023-01-04T03:23:34.308Z,65.80
2023-01-04T03:25:59.022Z,65.60
2023-01-04T03:28:19.749Z,65.50
2023-01-04T03:30:41.266Z,65.40
2023-01-04T03:33:05.942Z,65.40
2023-01-04T03:35:22.880Z,65.50
2023-01-04T03:37:35.192Z,65.40
2023-01-04T03:39:58.372Z,65.50
2023-01-04T03:42:23.168Z,65.50
2023-01-04T03:44:52.920Z,65.50
2023-01-04T03:47:15.294Z,65.40
2023-01-04T03:49:21.178Z,65.50
2023-01-04T03:51:25.706Z,65.30
2023-01-04T03:53:28.314Z,65.10
2023-01-04T03:55:31.099Z,64.90
2023-01-04T03:57:33.554Z,64.90
2023-01-04T03:59:37.815Z,65.10
2023-01-04T04:01:40.787Z,65.30
2023-01-04T04:04:01.448Z,65.20
2023-01-04T04:06:29.255Z,65.40
2023-01-04T04:08:30.948Z,65.20
2023-01-04T04:10:32.615Z,65.20
2023-01-04T04:12:34.307Z,65.10
2023-01-04T04:14:36.018Z,65.10
2023-01-04T04:16:37.866Z,65.10
2023-01-04T04:18:39.589Z,65.00
2023-01-04T04:20:41.242Z,64.90
2023-01-04T04:22:43.240Z,64.80
2023-01-04T04:24:44.867Z,64.80
2023-01-04T04:26:46.742Z,64.90
2023-01-04T04:28:48.415Z,65.00
2023-01-04T04:30:50.539Z,64.90
2023-01-04T04:32:52.188Z,65.60
2023-01-04T04:34:53.836Z,64.80
2023-01-04T04:36:55.535Z,64.80
2023-01-04T04:38:57.136Z,65.70
2023-01-04T04:41:17.409Z,64.90
2023-01-04T04:43:19.023Z,64.80
2023-01-04T04:45:20.664Z,65.00
2023-01-04T04:47:22.330Z,65.00
2023-01-04T04:49:23.921Z,65.00
2023-01-04T04:51:25.593Z,65.20
2023-01-04T04:53:27.269Z,65.40
2023-01-04T04:55:28.895Z,65.50
2023-01-04T04:57:30.507Z,65.20
2023-01-04T04:59:32.206Z,66.40
2023-01-04T05:01:34.009Z,65.30
2023-01-04T05:03:35.742Z,65.40
2023-01-04T05:05:37.380Z,65.70
2023-01-04T05:07:38.984Z,65.60
2023-01-04T05:09:40.614Z,65.70
2023-01-04T05:12:01.477Z,65.60
2023-01-04T05:14:03.155Z,65.60
2023-01-04T05:16:05.787Z,65.70
2023-01-04T05:18:08.451Z,66.10
2023-01-04T05:20:10.255Z,65.70
2023-01-04T05:22:11.897Z,65.80
2023-01-04T05:24:13.734Z,66.10
2023-01-04T05:26:15.376Z,66.10
2023-01-04T05:28:17.029Z,66.30
2023-01-04T05:30:37.634Z,66.20
2023-01-04T05:32:39.281Z,66.00
2023-01-04T05:34:40.989Z,65.90
2023-01-04T05:36:42.565Z,66.00
2023-01-04T05:38:44.188Z,66.00
2023-01-04T05:40:45.978Z,66.10
2023-01-04T05:42:47.781Z,66.50
2023-01-04T05:44:49.413Z,66.20
2023-01-04T05:46:51.065Z,66.10
2023-01-04T05:48:52.681Z,65.70
2023-01-04T05:50:54.367Z,65.70
2023-01-04T05:52:56.211Z,66.10
2023-01-04T05:54:57.842Z,66.10
2023-01-04T05:56:59.537Z,66.10
2023-01-04T05:59:01.192Z,66.00
2023-01-04T06:01:02.858Z,66.00
2023-01-04T06:03:04.681Z,66.10
2023-01-04T06:05:06.532Z,66.10
2023-01-04T06:07:08.214Z,66.30
2023-01-04T06:09:09.825Z,66.00
2023-01-04T06:11:11.407Z,65.90
2023-01-04T06:13:13.030Z,65.70
2023-01-04T06:15:14.745Z,65.80
2023-01-04T06:17:16.513Z,66.10
2023-01-04T06:19:18.198Z,65.90
2023-01-04T06:21:19.839Z,66.00
2023-01-04T06:23:21.481Z,65.70
2023-01-04T06:25:23.165Z,65.80
2023-01-04T06:27:25.205Z,66.00
2023-01-04T06:29:26.838Z,66.00
2023-01-04T06:31:28.520Z,66.00
2023-01-04T06:33:30.217Z,66.30
2023-01-04T06:35:31.948Z,66.20
2023-01-04T06:37:33.613Z,66.20
2023-01-04T06:39:35.368Z,66.40
2023-01-04T06:41:37.068Z,66.40
2023-01-04T06:43:38.695Z,66.50
2023-01-04T06:45:40.373Z,66.90
2023-01-04T06:47:42.117Z,67.20
2023-01-04T06:49:43.783Z,67.50
2023-01-04T06:51:45.540Z,67.50
2023-01-04T06:53:47.287Z,67.20
2023-01-04T06:55:48.940Z,67.20
2023-01-04T06:57:52.964Z,67.20
2023-01-04T06:59:58.065Z,67.40
2023-01-04T07:01:59.904Z,67.00
2023-01-04T07:04:01.650Z,66.80
2023-01-04T07:06:03.841Z,67.00
2023-01-04T07:08:08.276Z,67.00
2023-01-04T07:10:10.276Z,67.40
2023-01-04T07:12:11.913Z,66.90
2023-01-04T07:14:13.939Z,67.30
2023-01-04T07:16:15.600Z,68.30
2023-01-04T07:18:17.340Z,67.80
2023-01-04T07:20:19.029Z,67.70
2023-01-04T07:22:20.674Z,67.60
2023-01-04T07:24:26.359Z,66.90
2023-01-04T07:26:31.354Z,67.20
2023-01-04T07:28:51.802Z,67.50
2023-01-04T07:30:53.469Z,67.50
2023-01-04T07:32:55.668Z,67.70
2023-01-04T07:34:58.264Z,67.40
2023-01-04T07:36:59.938Z,67.50
2023-01-04T07:39:01.785Z,67.70
2023-01-04T07:41:06.085Z,67.90
2023-01-04T07:43:08.247Z,67.80
2023-01-04T07:45:10.153Z,67.80
2023-01-04T07:47:11.787Z,68.00
2023-01-04T07:49:18.513Z,68.00
2023-01-04T07:51:20.342Z,67.90
2023-01-04T07:53:21.958Z,67.60
2023-01-04T07:55:23.624Z,67.40
2023-01-04T07:57:25.305Z,67.30
2023-01-04T07:59:27.041Z,67.30
2023-01-04T08:01:28.859Z,67.00
2023-01-04T08:03:30.548Z,67.00
2023-01-04T08:05:32.769Z,66.70
2023-01-04T08:07:34.413Z,67.00
2023-01-04T08:09:36.077Z,67.10
2023-01-04T08:11:37.945Z,67.30
2023-01-04T08:13:39.743Z,67.50
2023-01-04T08:15:41.550Z,67.40
2023-01-04T08:17:43.225Z,67.00
2023-01-04T08:19:46.716Z,67.10
2023-01-04T08:21:48.644Z,67.30
2023-01-04T08:23:50.353Z,67.30
2023-01-04T08:25:51.971Z,67.20
2023-01-04T08:27:53.635Z,67.40
2023-01-04T08:29:55.299Z,67.40
2023-01-04T08:31:56.945Z,67.20
2023-01-04T08:34:00.881Z,67.30
2023-01-04T08:36:26.042Z,67.20
2023-01-04T08:38:58.667Z,67.40
2023-01-04T08:40:58.506Z,67.50
2023-01-04T08:43:05.561Z,67.60
2023-01-04T08:45:07.604Z,67.90
2023-01-04T08:47:09.375Z,67.90
2023-01-04T08:49:11.021Z,67.70
2023-01-04T08:51:14.392Z,67.80
2023-01-04T08:53:16.068Z,67.70
2023-01-04T08:55:22.947Z,67.30
2023-01-04T08:57:25.026Z,67.20
2023-01-04T08:59:26.749Z,67.30
2023-01-04T09:01:28.590Z,67.50
2023-01-04T09:03:30.777Z,67.90
2023-01-04T09:05:32.541Z,67.70
2023-01-04T09:07:34.175Z,67.70
2023-01-04T09:09:35.822Z,67.70
2023-01-04T09:11:38.048Z,68.00
2023-01-04T09:13:40.769Z,68.00
2023-01-04T09:15:42.431Z,68.00
2023-01-04T09:18:05.165Z,67.80
2023-01-04T09:20:05.988Z,67.70
2023-01-04T09:22:07.678Z,68.00
2023-01-04T09:24:09.361Z,67.80
2023-01-04T09:26:12.961Z,67.90
2023-01-04T09:28:14.675Z,68.00
2023-01-04T09:30:16.286Z,68.10
2023-01-04T09:32:18.107Z,67.80
2023-01-04T09:34:19.845Z,68.00
2023-01-04T09:36:21.626Z,67.80
2023-01-04T09:38:23.334Z,67.90
2023-01-04T09:40:31.192Z,68.10
2023-01-04T09:42:37.632Z,67.90
2023-01-04T09:47:09.028Z,67.60
2023-01-04T09:49:15.147Z,67.60
2023-01-04T09:51:18.522Z,67.40
2023-01-04T09:53:29.925Z,67.40
2023-01-04T09:55:37.626Z,68.30
2023-01-04T09:57:45.601Z,67.50
2023-01-04T09:59:48.165Z,67.40
2023-01-04T10:01:54.027Z,67.50
2023-01-04T10:04:15.048Z,67.30
2023-01-04T10:06:16.742Z,67.00
2023-01-04T10:08:20.071Z,67.00
2023-01-04T10:10:28.261Z,67.30
2023-01-04T10:12:38.804Z,67.20
2023-01-04T10:14:52.779Z,67.00
2023-01-04T10:17:14.395Z,67.00
2023-01-04T10:20:59.561Z,67.10
2023-01-04T10:22:01.531Z,67.00
2023-01-04T10:24:22.023Z,66.80
2023-01-04T10:26:26.392Z,67.10
2023-01-04T10:28:34.166Z,67.20
2023-01-04T10:31:38.231Z,67.30
2023-01-04T10:33:37.986Z,67.00
2023-01-04T10:35:41.166Z,67.10
2023-01-04T10:37:43.141Z,67.10
2023-01-04T10:39:45.222Z,67.00
2023-01-04T10:41:57.533Z,67.00
2023-01-04T10:44:17.851Z,67.00
2023-01-04T10:46:26.995Z,67.00
2023-01-04T10:48:34.611Z,67.00
2023-01-04T10:50:47.955Z,67.10
2023-01-04T10:52:53.593Z,67.20
2023-01-04T10:54:58.373Z,67.20
2023-01-04T10:57:05.093Z,67.20
2023-01-04T10:59:08.403Z,67.20
2023-01-04T11:01:14.372Z,67.10
2023-01-04T11:03:19.283Z,67.10
2023-01-04T11:05:36.359Z,67.10
2023-01-04T11:07:55.819Z,67.10
2023-01-04T11:10:09.343Z,67.00
2023-01-04T11:12:12.069Z,67.10
2023-01-04T11:14:14.314Z,66.70
2023-01-04T11:16:16.181Z,66.60
2023-01-04T11:18:18.406Z,66.50
2023-01-04T11:20:23.891Z,66.70
2023-01-04T11:22:39.923Z,66.80
2023-01-04T11:25:00.478Z,66.90
2023-01-04T11:27:06.198Z,66.90
2023-01-04T11:29:18.668Z,66.80
2023-01-04T11:31:29.262Z,66.80
2023-01-04T11:33:32.752Z,67.10
2023-01-04T11:35:43.480Z,67.00
2023-01-04T11:37:45.143Z,66.90
2023-01-04T11:39:46.805Z,66.90
2023-01-04T11:42:04.711Z,66.70
2023-01-04T11:44:06.996Z,66.80
2023-01-04T11:46:22.740Z,67.00
2023-01-04T11:48:31.059Z,66.90
2023-01-04T11:50:37.713Z,66.70
2023-01-04T11:52:41.214Z,66.80
2023-01-04T11:54:42.861Z,67.00
2023-01-04T11:56:56.879Z,67.20
2023-01-04T11:59:24.782Z,67.10
2023-01-04T12:01:27.142Z,67.20
2023-01-04T12:03:38.415Z,67.50
2023-01-04T12:05:40.176Z,67.60
2023-01-04T12:07:42.076Z,67.10
2023-01-04T12:09:43.811Z,67.20
2023-01-04T12:11:59.362Z,67.30
2023-01-04T12:14:01.439Z,67.10
2023-01-04T12:16:12.330Z,67.10
2023-01-04T12:18:21.168Z,67.20
2023-01-04T12:20:24.790Z,67.40
2023-01-04T12:22:37.078Z,67.50
2023-01-04T12:24:39.093Z,67.50
2023-01-04T12:26:41.998Z,67.70
2023-01-04T12:28:44.983Z,67.60
2023-01-04T12:30:46.875Z,67.60
2023-01-04T12:32:48.589Z,67.60
2023-01-04T12:34:50.525Z,67.50
2023-01-04T12:36:52.161Z,67.50
2023-01-04T12:38:59.838Z,67.70
2023-01-04T12:41:01.529Z,67.80
2023-01-04T12:43:15.487Z,67.50
2023-01-04T12:45:17.969Z,67.00
2023-01-04T12:47:49.326Z,67.10
2023-01-04T12:49:57.086Z,67.20
2023-01-04T12:52:29.556Z,67.40
2023-01-04T12:54:44.523Z,67.40
2023-01-04T12:57:05.451Z,67.20
2023-01-04T12:59:27.619Z,67.40
2023-01-04T13:01:29.722Z,67.30
2023-01-04T13:03:32.287Z,67.50
2023-01-04T13:07:59.691Z,67.50
2023-01-04T13:10:02.896Z,67.70
2023-01-04T13:12:12.651Z,67.80
2023-01-04T13:14:20.379Z,67.90
2023-01-04T13:16:22.183Z,67.70
2023-01-04T13:18:23.854Z,67.80
2023-01-04T13:20:26.862Z,67.70
2023-01-04T13:22:29.962Z,67.60
2023-01-04T13:24:34.237Z,67.50
2023-01-04T13:26:40.671Z,67.50
2023-01-04T13:28:43.899Z,67.70
2023-01-04T13:30:46.805Z,67.80
2023-01-04T13:33:24.446Z,67.40
2023-01-04T13:35:14.040Z,67.60
2023-01-04T13:37:25.334Z,67.70
2023-01-04T13:39:28.402Z,67.90
2023-01-04T13:41:30.067Z,67.90
2023-01-04T13:43:34.729Z,67.90
2023-01-04T13:45:42.316Z,67.90
2023-01-04T13:47:44.620Z,67.80
2023-01-04T13:49:46.505Z,67.70
2023-01-04T13:51:48.180Z,67.40
2023-01-04T13:53:57.159Z,67.70
2023-01-04T13:55:59.991Z,68.00
2023-01-04T13:58:16.983Z,68.00
2023-01-04T14:00:18.802Z,68.20
2023-01-04T14:02:21.679Z,68.40
2023-01-04T14:04:25.989Z,68.20
2023-01-04T14:06:34.913Z,68.40
2023-01-04T14:08:39.179Z,68.60
2023-01-04T14:10:43.742Z,68.50
2023-01-04T14:12:46.356Z,68.30
2023-01-04T14:14:50.774Z,68.40
2023-01-04T14:17:12.660Z,68.30
2023-01-04T14:19:27.704Z,68.70
2023-01-04T14:21:36.268Z,68.90
2023-01-04T14:23:38.692Z,68.90
2023-01-04T14:25:44.683Z,68.90
2023-01-04T14:27:46.379Z,68.50
2023-01-04T14:29:48.042Z,68.20
2023-01-04T14:31:50.221Z,68.40
2023-01-04T14:33:53.449Z,68.40
2023-01-04T14:36:02.268Z,68.40
2023-01-04T14:38:06.109Z,68.90
2023-01-04T14:40:15.392Z,68.70
2023-01-04T14:42:24.525Z,68.90
2023-01-04T14:44:28.578Z,69.10
2023-01-04T14:46:31.621Z,69.20
2023-01-04T14:48:33.408Z,69.50
2023-01-04T14:50:35.054Z,69.10
2023-01-04T14:52:36.787Z,69.10
2023-01-04T14:54:39.666Z,69.50
2023-01-04T14:56:41.442Z,69.30
2023-01-04T14:58:43.378Z,69.40
2023-01-04T15:00:44.990Z,69.60
2023-01-04T15:02:50.594Z,69.70
2023-01-04T15:04:52.800Z,69.70
2023-01-04T15:06:56.210Z,69.50
2023-01-04T15:08:57.884Z,69.50
2023-01-04T15:11:00.274Z,69.30
2023-01-04T15:13:04.147Z,69.20
2023-01-04T15:15:06.048Z,68.90
2023-01-04T15:17:07.833Z,69.00
2023-01-04T15:19:09.571Z,69.10
2023-01-04T15:21:12.165Z,68.90
2023-01-04T15:23:13.820Z,68.90
2023-01-04T15:25:15.571Z,69.00
2023-01-04T15:27:19.183Z,68.80
2023-01-04T15:29:20.982Z,68.80
2023-01-04T15:31:30.007Z,68.90
2023-01-04T15:33:34.296Z,69.10
2023-01-04T15:35:36.266Z,69.00
2023-01-04T15:37:38.115Z,69.10
2023-01-04T15:39:39.891Z,68.70
2023-01-04T15:42:00.305Z,68.90
2023-01-04T15:44:03.036Z,68.90
2023-01-04T15:46:07.261Z,69.20
2023-01-04T15:48:10.240Z,69.00
2023-01-04T15:50:11.960Z,69.00
2023-01-04T15:52:13.734Z,69.10
2023-01-04T15:54:17.125Z,68.90
2023-01-04T15:56:19.147Z,69.10
2023-01-04T15:58:21.060Z,69.10
2023-01-04T16:00:23.057Z,69.20
2023-01-04T16:02:24.942Z,69.30
2023-01-04T16:04:27.531Z,69.50
2023-01-04T16:06:29.391Z,69.30
2023-01-04T16:08:31.252Z,70.00
2023-01-04T16:10:32.929Z,69.40
2023-01-04T16:12:44.399Z,69.60
2023-01-04T16:14:46.098Z,69.60
2023-01-04T16:16:47.788Z,69.70
2023-01-04T16:18:50.556Z,69.70
2023-01-04T16:20:52.313Z,69.40
2023-01-04T16:22:54.407Z,69.20
2023-01-04T16:25:12.415Z,69.40
2023-01-04T16:27:14.384Z,69.30
2023-01-04T16:29:16.459Z,69.20
2023-01-04T16:31:18.265Z,69.00
2023-01-04T16:33:19.898Z,68.80
2023-01-04T16:35:21.648Z,69.30
2023-01-04T16:37:26.135Z,69.50
2023-01-04T16:39:57.272Z,69.60
2023-01-04T16:41:50.031Z,69.50
2023-01-04T16:43:52.810Z,69.60
2023-01-04T16:46:13.061Z,69.40
2023-01-04T16:48:18.430Z,70.10
2023-01-04T16:50:20.487Z,69.60
2023-01-04T16:52:22.218Z,69.60
2023-01-04T16:54:23.919Z,69.70
2023-01-04T16:56:26.010Z,69.80
2023-01-04T16:58:29.158Z,69.80
2023-01-04T17:00:31.844Z,69.90
2023-01-04T17:02:33.645Z,70.00
2023-01-04T17:04:35.463Z,69.40
2023-01-04T17:06:38.542Z,69.60
2023-01-04T17:08:40.403Z,69.80
2023-01-04T17:10:42.044Z,70.10
2023-01-04T17:12:48.571Z,69.40
2023-01-04T17:15:14.864Z,69.60
2023-01-04T17:17:12.724Z,69.10
2023-01-04T17:19:14.394Z,69.10
2023-01-04T17:21:33.174Z,69.20
2023-01-04T17:23:37.167Z,69.40
2023-01-04T17:25:38.848Z,69.40
2023-01-04T17:27:40.722Z,70.00
2023-01-04T17:29:42.422Z,68.80
2023-01-04T17:31:45.198Z,69.80
2023-01-04T17:33:47.434Z,68.80
2023-01-04T17:35:49.505Z,68.70
2023-01-04T17:37:51.138Z,68.90
2023-01-04T17:39:52.949Z,69.00
2023-01-04T17:41:54.712Z,69.10
2023-01-04T17:44:03.737Z,69.50
2023-01-04T17:46:06.185Z,69.60
2023-01-04T17:48:07.954Z,69.60
2023-01-04T17:50:09.725Z,69.30
2023-01-04T17:52:16.311Z,69.20
2023-01-04T17:54:23.104Z,69.30
2023-01-04T17:56:25.257Z,69.50
2023-01-04T17:58:27.774Z,69.30
2023-01-04T18:00:29.498Z,69.20
2023-01-04T18:02:31.968Z,69.20
2023-01-04T18:04:33.597Z,69.50
2023-01-04T18:06:36.097Z,69.20
2023-01-04T18:08:37.797Z,69.00
2023-01-04T18:11:06.336Z,69.60
2023-01-04T18:13:01.075Z,69.80
2023-01-04T18:15:06.395Z,70.10
2023-01-04T18:17:08.220Z,70.70
2023-01-04T18:19:09.957Z,69.70
2023-01-04T18:21:27.063Z,69.70
2023-01-04T18:23:29.949Z,69.80
2023-01-04T18:25:32.774Z,70.20
2023-01-04T18:27:34.470Z,70.30
2023-01-04T18:29:36.227Z,70.30
2023-01-04T18:31:38.104Z,70.40
2023-01-04T18:33:39.879Z,70.40
2023-01-04T18:35:41.534Z,70.10
2023-01-04T18:37:44.073Z,70.30
2023-01-04T18:39:46.111Z,70.80
2023-01-04T18:41:47.864Z,70.30
2023-01-04T18:44:05.574Z,70.40
2023-01-04T18:46:12.238Z,70.20
2023-01-04T18:48:14.030Z,70.70
2023-01-04T18:50:16.528Z,70.40
2023-01-04T18:52:18.293Z,70.60
2023-01-04T18:54:20.732Z,70.50
2023-01-04T18:56:22.953Z,70.40
2023-01-04T18:58:24.765Z,70.70
2023-01-04T19:00:29.906Z,70.30
2023-01-04T19:02:31.791Z,70.40
2023-01-04T19:04:34.559Z,70.80
2023-01-04T19:06:36.352Z,70.90
2023-01-04T19:08:38.178Z,70.80
2023-01-04T19:10:39.863Z,70.70
2023-01-04T19:12:44.836Z,70.50
2023-01-04T19:14:46.997Z,70.40
2023-01-04T19:16:48.860Z,70.50
2023-01-04T19:18:53.863Z,70.10
2023-01-04T19:20:55.692Z,70.10
2023-01-04T19:22:59.470Z,70.00
2023-01-04T19:25:01.357Z,70.00
2023-01-04T19:27:04.979Z,70.10
2023-01-04T19:29:08.585Z,69.70
2023-01-04T19:31:10.423Z,69.70
2023-01-04T19:33:12.409Z,70.30
2023-01-04T19:35:14.164Z,70.30
2023-01-04T19:37:15.891Z,70.60
2023-01-04T19:39:38.185Z,70.30
2023-01-04T19:41:41.061Z,70.70
2023-01-04T19:43:42.959Z,70.70
2023-01-04T19:45:44.780Z,70.30
2023-01-04T19:47:49.044Z,70.20
2023-01-04T19:49:50.788Z,70.00
2023-01-04T19:51:52.534Z,70.10
2023-01-04T19:53:54.249Z,70.00
2023-01-04T19:55:56.391Z,70.30
2023-01-04T19:57:58.336Z,70.50
2023-01-04T20:00:00.135Z,70.60
2023-01-04T20:02:01.928Z,70.20
2023-01-04T20:04:03.845Z,70.70
2023-01-04T20:06:05.932Z,70.70
2023-01-04T20:08:07.805Z,70.50
2023-01-04T20:10:14.158Z,70.90
2023-01-04T20:12:16.516Z,70.60
2023-01-04T20:14:18.330Z,70.80
2023-01-04T20:16:20.201Z,70.90
2023-01-04T20:18:23.837Z,70.40
2023-01-04T20:20:25.679Z,70.50
2023-01-04T20:22:27.505Z,70.40
2023-01-04T20:24:29.344Z,70.40
2023-01-04T20:26:31.132Z,70.50
2023-01-04T20:28:32.931Z,70.40
2023-01-04T20:30:34.953Z,70.90
2023-01-04T20:32:37.197Z,71.10
2023-01-04T20:34:39.078Z,71.00
2023-01-04T20:36:40.871Z,71.00
2023-01-04T20:38:43.643Z,71.40
2023-01-04T20:40:45.353Z,71.40
2023-01-04T20:43:05.943Z,71.10
2023-01-04T20:45:07.973Z,71.10
2023-01-04T20:47:09.668Z,71.10
2023-01-04T20:49:11.425Z,71.50
2023-01-04T20:51:14.613Z,71.00
2023-01-04T20:53:16.471Z,70.80
2023-01-04T20:55:18.935Z,71.10
2023-01-04T20:57:20.632Z,71.40
2023-01-04T20:59:22.452Z,71.40
2023-01-04T21:01:25.322Z,71.70
2023-01-04T21:03:27.264Z,71.60
2023-01-04T21:05:28.973Z,71.10
2023-01-04T21:07:30.816Z,71.20
2023-01-04T21:09:32.483Z,71.20
2023-01-04T21:11:34.295Z,71.20
2023-01-04T21:13:36.070Z,71.30
2023-01-04T21:15:39.618Z,71.60
2023-01-04T21:17:41.485Z,71.50
2023-01-04T21:19:43.200Z,71.20
2023-01-04T21:21:44.881Z,71.10
2023-01-04T21:23:47.138Z,71.30
2023-01-04T21:25:49.915Z,71.30
2023-01-04T21:27:51.711Z,71.60
2023-01-04T21:29:53.428Z,70.90
2023-01-04T21:31:55.381Z,70.90
2023-01-04T21:33:57.339Z,71.00
2023-01-04T21:35:59.034Z,70.90
2023-01-04T21:38:00.784Z,70.80
2023-01-04T21:40:02.518Z,70.80
2023-01-04T21:42:04.402Z,70.80
2023-01-04T21:44:06.959Z,70.60
2023-01-04T21:46:10.055Z,70.70
2023-01-04T21:48:11.858Z,70.70
2023-01-04T21:50:17.125Z,70.60
2023-01-04T21:52:19.225Z,70.80
2023-01-04T21:54:21.110Z,71.20
2023-01-04T21:56:23.840Z,70.90
2023-01-04T21:58:26.754Z,71.10
2023-01-04T22:00:28.497Z,71.20
2023-01-04T22:02:30.622Z,71.00
2023-01-04T22:04:33.079Z,70.90
2023-01-04T22:06:38.560Z,71.00
2023-01-04T22:08:43.413Z,70.80
2023-01-04T22:10:45.344Z,71.10
2023-01-04T22:12:47.872Z,71.30
2023-01-04T22:14:49.676Z,71.00
2023-01-04T22:16:51.426Z,71.80
2023-01-04T22:18:53.191Z,71.00
2023-01-04T22:21:20.937Z,71.10
2023-01-04T22:23:22.665Z,71.00
2023-01-04T22:25:24.450Z,71.00
2023-01-04T22:27:26.328Z,71.40
2023-01-04T22:29:28.189Z,71.30
2023-01-04T22:31:29.899Z,71.50
2023-01-04T22:33:31.616Z,71.30
2023-01-04T22:35:33.295Z,71.70
2023-01-04T22:37:35.056Z,71.40
2023-01-04T22:39:36.804Z,71.50
2023-01-04T22:41:40.118Z,71.50
2023-01-04T22:43:42.675Z,71.20
2023-01-04T22:45:44.410Z,71.40
2023-01-04T22:47:46.036Z,71.10
2023-01-04T22:49:47.949Z,71.40
2023-01-04T22:51:49.635Z,71.80
2023-01-04T22:53:55.598Z,71.90
2023-01-04T22:56:18.271Z,71.70
2023-01-04T22:58:18.915Z,71.90
2023-01-04T23:00:20.596Z,71.80
2023-01-04T23:02:22.298Z,71.40
2023-01-04T23:04:26.324Z,71.60
2023-01-04T23:06:28.731Z,71.20
2023-01-04T23:08:30.397Z,71.40
2023-01-04T23:10:32.790Z,71.40
2023-01-04T23:12:34.567Z,71.60
2023-01-04T23:14:36.318Z,71.80
2023-01-04T23:16:38.155Z,72.30
2023-01-04T23:18:40.078Z,71.50
2023-01-04T23:20:41.710Z,71.50
2023-01-04T23:22:43.370Z,71.80
2023-01-04T23:24:45.050Z,71.80
2023-01-04T23:26:47.264Z,71.70
2023-01-04T23:28:49.653Z,71.80
2023-01-04T23:30:51.303Z,71.70
2023-01-04T23:32:52.961Z,72.00
2023-01-04T23:34:54.686Z,71.70
2023-01-04T23:36:56.300Z,72.40
2023-01-04T23:38:59.736Z,72.00
2023-01-04T23:41:01.408Z,72.00
2023-01-04T23:43:03.112Z,72.10
2023-01-04T23:45:05.159Z,71.90
2023-01-04T23:47:08.894Z,72.10
2023-01-04T23:49:11.367Z,71.80
2023-01-04T23:51:13.269Z,71.20
2023-01-04T23:53:14.911Z,71.60
2023-01-04T23:55:16.619Z,71.90
2023-01-04T23:57:18.327Z,72.00
2023-01-04T23:59:20.526Z,71.60
